Time;durP1;ratioP1;P1;durP2;ratioP2;P2;SDS_P1;SDS_P2;PMS_P1;PMS_P2;Temp;Humidity;BMP_temperature;BMP_pressure;BME280_temperature;BME280_humidity;BME280_pressure;Samples;Min_cycle;Max_cycle;Signal;HPM_P1;HPM_P2
2021/01/01 00:00:30;;;;;;;150.70;78.15;;;4.00;99.90;;;;;;5045825;28;20096;-59
2021/01/01 00:02:55;;;;;;;130.45;69.53;;;4.00;99.90;;;;;;5043620;28;20502;-60
2021/01/01 00:05:21;;;;;;;127.40;67.00;;;4.00;99.90;;;;;;5028988;28;20026;-60
2021/01/01 00:07:47;;;;;;;132.82;69.18;;;4.00;99.90;;;;;;5028166;28;20037;-60
2021/01/01 00:10:13;;;;;;;123.97;62.55;;;3.90;99.90;;;;;;5033295;28;20491;-61
2021/01/01 00:12:39;;;;;;;119.50;62.17;;;4.00;99.90;;;;;;5027566;28;20033;-58
2021/01/01 00:15:06;;;;;;;107.63;57.40;;;4.00;99.90;;;;;;5028162;28;20087;-59
2021/01/01 00:17:32;;;;;;;100.57;52.78;;;4.00;99.90;;;;;;5032068;28;20057;-60
2021/01/01 00:19:58;;;;;;;100.47;52.55;;;3.90;99.90;;;;;;5031251;28;20053;-60
2021/01/01 00:22:24;;;;;;;95.25;49.70;;;3.90;99.90;;;;;;5032364;28;20049;-60
2021/01/01 00:24:49;;;;;;;101.22;54.38;;;3.80;99.90;;;;;;5035602;28;20517;-59
2021/01/01 00:27:16;;;;;;;102.07;49.47;;;3.90;99.90;;;;;;5030463;28;20041;-59
2021/01/01 00:29:41;;;;;;;89.57;47.05;;;3.80;99.90;;;;;;5033979;28;20068;-58
2021/01/01 00:32:07;;;;;;;86.18;45.97;;;3.80;99.90;;;;;;5025984;28;20594;-59
2021/01/01 00:34:33;;;;;;;85.47;45.88;;;3.80;99.90;;;;;;5027277;28;20028;-60
2021/01/01 00:36:59;;;;;;;79.07;43.30;;;3.80;99.90;;;;;;5029865;28;20458;-59
2021/01/01 00:39:25;;;;;;;80.07;43.38;;;3.80;99.90;;;;;;5040333;28;20067;-59
2021/01/01 00:41:50;;;;;;;80.43;41.38;;;3.80;99.90;;;;;;5031074;28;20564;-60
2021/01/01 00:44:16;;;;;;;81.38;41.70;;;3.80;99.90;;;;;;5029958;28;20033;-59
2021/01/01 00:46:42;;;;;;;74.82;40.47;;;3.80;99.90;;;;;;5037251;28;20142;-59
2021/01/01 00:49:08;;;;;;;72.50;40.50;;;3.80;99.90;;;;;;5034055;28;20132;-60
2021/01/01 00:51:34;;;;;;;71.15;38.10;;;3.70;99.90;;;;;;5032176;28;20022;-58
2021/01/01 00:54:00;;;;;;;70.25;37.75;;;3.70;99.90;;;;;;5025697;28;20445;-58
2021/01/01 00:56:27;;;;;;;76.47;38.78;;;3.70;99.90;;;;;;5028637;28;20035;-58
2021/01/01 00:58:54;;;;;;;87.38;40.65;;;3.70;99.90;;;;;;5026174;28;20398;-58
2021/01/01 01:01:22;;;;;;;72.28;37.13;;;3.70;99.90;;;;;;5030349;28;20530;-58
2021/01/01 01:03:52;;;;;;;75.85;37.30;;;3.70;99.90;;;;;;5030230;28;20119;-60
2021/01/01 01:06:18;;;;;;;75.72;38.25;;;3.70;99.90;;;;;;5027537;28;20044;-58
2021/01/01 01:08:44;;;;;;;69.72;37.05;;;3.70;99.90;;;;;;5028385;28;20140;-58
2021/01/01 01:11:10;;;;;;;70.05;35.22;;;3.80;99.90;;;;;;5028788;28;20120;-59
2021/01/01 01:13:37;;;;;;;68.75;35.10;;;3.80;99.90;;;;;;5030509;28;20112;-59
2021/01/01 01:16:02;;;;;;;64.70;33.47;;;3.80;99.90;;;;;;5027048;28;20040;-59
2021/01/01 01:18:28;;;;;;;70.22;35.53;;;3.80;99.90;;;;;;5027919;28;20481;-60
2021/01/01 01:20:54;;;;;;;67.72;34.38;;;3.80;99.90;;;;;;5032422;28;20025;-60
2021/01/01 01:23:20;;;;;;;66.88;36.40;;;3.80;99.90;;;;;;5024335;28;20040;-58
2021/01/01 01:25:45;;;;;;;72.78;35.08;;;3.80;99.90;;;;;;5027899;28;20430;-58
2021/01/01 01:28:11;;;;;;;70.95;36.38;;;3.80;99.90;;;;;;5028587;28;20175;-57
2021/01/01 01:30:37;;;;;;;75.93;36.13;;;3.80;99.90;;;;;;5027529;28;20025;-57
2021/01/01 01:33:03;;;;;;;75.18;38.15;;;3.80;99.90;;;;;;5029571;28;20107;-58
2021/01/01 01:35:29;;;;;;;72.70;36.92;;;3.80;99.90;;;;;;5031349;28;20056;-58
2021/01/01 01:37:54;;;;;;;76.68;38.70;;;3.80;99.90;;;;;;5024487;28;20053;-57
2021/01/01 01:40:20;;;;;;;80.45;41.20;;;3.80;99.90;;;;;;5025575;28;20028;-56
2021/01/01 01:42:46;;;;;;;79.53;41.10;;;3.80;99.90;;;;;;5028285;28;20052;-59
2021/01/01 01:45:12;;;;;;;76.82;40.08;;;3.80;99.90;;;;;;5027944;28;20076;-66
